Grande Portogallo — IBZW — position and weather

sailwx.info

Track history (hours):
 
Tides and Currents Weather Stations Pressure Air Temp Water Temp Dewpoint Dewpoint Depression Visibility Wind Speed Wind Dir Waves Ship Positions

Grande Portogallo

Last reported at 2014-Sep-16 22:30 UTC. Time now 2014-Sep-16 23:34 UTC.
Position N 39°26' W 000°18'.

Length 176 m; draft 8.2 m.

Type: Cargo ship. MMSI: 247065500.

Date/timePositionNaut miles runAvg speedWind from/ knotsBaromVisibWave heightAir tempDewpointWater temp
2014-Sep-16 22:30N 39°26' W 000°18'0 0.0
2014-Sep-16 21:18N 39°27' W 000°18'0 0.4
2014-Sep-16 20:33N 39°26' W 000°18'6113.6
2014-Sep-16 16:05N 38°35' E 000°22'815.7
2014-Sep-16 15:33N 38°28' E 000°16'1615.7
2014-Sep-16 14:33N 38°15' E 000°05'1515.4
2014-Sep-16 13:33N 38°02' W 000°06'1615.7
2014-Sep-16 12:33N 37°49' W 000°17'1615.7
2014-Sep-16 11:32N 37°36' W 000°28'1515.4
2014-Sep-16 10:34N 37°25' W 000°41'1515.2
2014-Sep-16 09:33N 37°15' W 000°56'1515.5
2014-Sep-16 08:33N 37°04' W 001°10'8520.7
2014-Sep-16 04:25N 36°18' W 002°40'3 2.6
2014-Sep-16 03:20N 36°18' W 002°36'33313.9
2014-Sep-15 03:25N 37°28' W 009°24'1315.2
2014-Sep-15 02:33N 37°41' W 009°19'1515.5
2014-Sep-15 01:33N 37°56' W 009°13'1615.6
2014-Sep-15 00:33N 38°11' W 009°07'1514.9
2014-Sep-14 23:33N 38°25' W 009°01'9 9.1
2014-Sep-14 22:33N 38°31' W 008°52'0 0.0
2014-Sep-14 21:31N 38°31' W 008°52'0 0.0
2014-Sep-14 20:28N 38°31' W 008°52'0 0.0
2014-Sep-14 19:31N 38°31' W 008°52'0 0.0
2014-Sep-14 18:31N 38°31' W 008°52'0 0.0
2014-Sep-14 17:31N 38°31' W 008°52'0 0.0
2014-Sep-14 16:31N 38°31' W 008°52'0 0.0
2014-Sep-14 15:31N 38°31' W 008°52'0 0.0
2014-Sep-14 14:28N 38°31' W 008°52'0 0.0
2014-Sep-14 13:31N 38°31' W 008°52'0 0.0
2014-Sep-14 12:31N 38°31' W 008°52'0 0.0
2014-Sep-14 11:31N 38°31' W 008°52'0 0.0
2014-Sep-14 10:29N 38°31' W 008°52'6 6.8
2014-Sep-14 09:33N 38°27' W 008°58'1312.7
2014-Sep-14 08:33N 38°21' W 009°13'1616.3
2014-Sep-14 07:33N 38°26' W 009°33'39314.3
2014-Sep-13 04:07N 44°58' W 009°03'36214.7
2014-Sep-12 03:33N 50°34' W 005°41'1615.5
2014-Sep-12 02:33N 50°43' W 005°22'8717.3
2014-Sep-11 21:33N 51°21' W 003°18'1313.3
2014-Sep-11 20:33N 51°27' W 002°59'1010.1
2014-Sep-11 19:33N 51°30' W 002°43'0 0.4
2014-Sep-11 18:31N 51°30' W 002°43'0 0.0
2014-Sep-11 17:31N 51°30' W 002°43'0 0.0
2014-Sep-11 16:31N 51°30' W 002°43'0 0.0
2014-Sep-11 15:31N 51°30' W 002°43'0 0.0
2014-Sep-11 14:31N 51°30' W 002°43'0 0.0
2014-Sep-11 13:31N 51°30' W 002°43'0 0.0
2014-Sep-11 12:31N 51°30' W 002°43'0 0.0
2014-Sep-11 11:31N 51°30' W 002°43'0 0.0
2014-Sep-11 10:31N 51°30' W 002°43'0 0.0
2014-Sep-11 09:31N 51°30' W 002°43'0 0.0
2014-Sep-11 08:31N 51°30' W 002°43'0 0.0
2014-Sep-11 07:32N 51°30' W 002°43'0 0.0
2014-Sep-11 06:31N 51°30' W 002°43'0 0.0
2014-Sep-11 05:31N 51°30' W 002°43'0 0.0
2014-Sep-11 04:32N 51°30' W 002°43'0 0.0
2014-Sep-11 03:31N 51°30' W 002°43'0 0.0
2014-Sep-11 02:31N 51°30' W 002°43'0 0.0
2014-Sep-11 01:32N 51°30' W 002°43'0 0.0
2014-Sep-11 00:31N 51°30' W 002°43'0 0.0
2014-Sep-10 23:31N 51°30' W 002°43'0 0.0
2014-Sep-10 22:31N 51°30' W 002°43'0 0.0
2014-Sep-10 21:31N 51°30' W 002°43'0 0.0
2014-Sep-10 20:31N 51°30' W 002°43'0 0.0
2014-Sep-10 19:31N 51°30' W 002°43'0 0.0
2014-Sep-10 18:33N 51°30' W 002°43'1 0.8
2014-Sep-10 17:33N 51°30' W 002°44'6 5.9
2014-Sep-10 16:33N 51°28' W 002°53'1413.9
2014-Sep-10 15:34N 51°21' W 003°12'76 7.3
2014-Sep-10 05:10N 50°50' W 005°02'1016.9
2014-Sep-10 04:33N 50°43' W 005°14'1717.0
2014-Sep-10 03:33N 50°32' W 005°34'1816.2
2014-Sep-10 02:27N 50°18' W 005°52'6913.6
2014-Sep-09 21:26N 50°04' W 004°07'4114.2
2014-Sep-09 18:33N 50°11' W 003°04'1414.0
2014-Sep-09 17:33N 50°15' W 002°43'1515.4
2014-Sep-09 16:33N 50°19' W 002°20'3617.8
2014-Sep-09 14:34N 50°28' W 001°25'2119.1
2014-Sep-09 13:28N 50°29' W 000°53'1617.9
2014-Sep-09 12:33N 50°30' W 000°27'1816.6
2014-Sep-09 11:27N 50°32' E 000°01'1415.3
2014-Sep-09 10:32N 50°35' E 000°23'1414.1
2014-Sep-09 09:33N 50°40' E 000°43'3216.0
2014-Sep-09 07:33N 51°01' E 001°22'1919.4
2014-Sep-09 06:34N 51°13' E 001°46'1615.5
2014-Sep-09 05:34N 51°24' E 002°04'1615.3
2014-Sep-09 04:32N 51°23' E 002°29'1514.9
2014-Sep-09 03:33N 51°23' E 002°53'1515.7
2014-Sep-09 02:33N 51°25' E 003°18'1313.1
2014-Sep-09 01:34N 51°26' E 003°38'1111.0
2014-Sep-09 00:34N 51°22' E 003°55'7 6.8
2014-Sep-08 23:34N 51°22' E 004°05'7 7.4
2014-Sep-08 22:34N 51°19' E 004°16'4 3.6
2014-Sep-08 21:33N 51°16' E 004°17'2 1.7
2014-Sep-08 20:33N 51°16' E 004°14'1 1.0
2014-Sep-08 19:33N 51°16' E 004°13'0 0.0
2014-Sep-08 18:33N 51°16' E 004°13'0 0.0
2014-Sep-08 17:30N 51°16' E 004°13'0 0.0
2014-Sep-08 16:33N 51°16' E 004°13'0 0.0
2014-Sep-08 15:33N 51°16' E 004°13'0 0.0
2014-Sep-08 14:33N 51°16' E 004°13'0 0.0
2014-Sep-08 13:30N 51°16' E 004°13'0 0.0
2014-Sep-08 12:33N 51°16' E 004°13'0 0.0
2014-Sep-08 11:30N 51°16' E 004°13'0 0.0
2014-Sep-08 10:27N 51°16' E 004°13'0 0.0
2014-Sep-08 09:30N 51°16' E 004°13'0 0.0
2014-Sep-08 08:30N 51°16' E 004°13'0 0.0
2014-Sep-08 07:33N 51°16' E 004°13'0 0.0
2014-Sep-08 06:33N 51°16' E 004°13'0 0.0
2014-Sep-08 05:33N 51°16' E 004°13'0 0.0
2014-Sep-08 04:33N 51°16' E 004°13'0 0.0
2014-Sep-08 03:33N 51°16' E 004°13'0 0.0
2014-Sep-08 02:33N 51°16' E 004°13'0 0.0
2014-Sep-08 01:30N 51°16' E 004°13'0 0.0
2014-Sep-08 00:30N 51°16' E 004°13'0 0.0
2014-Sep-07 23:30N 51°16' E 004°13'0 0.0
2014-Sep-07 22:33N 51°16' E 004°13'0 0.0
2014-Sep-07 21:33N 51°16' E 004°13'0 0.0
2014-Sep-07 20:33N 51°16' E 004°13'0 0.0
2014-Sep-07 19:33N 51°16' E 004°13'0 0.0
2014-Sep-07 18:30N 51°16' E 004°13'0 0.0
2014-Sep-07 17:33N 51°16' E 004°13'0 0.0
2014-Sep-07 16:30N 51°16' E 004°13'0 0.0
2014-Sep-07 15:30N 51°16' E 004°13'0 0.0
2014-Sep-07 14:33N 51°16' E 004°13'0 0.0
2014-Sep-07 13:33N 51°16' E 004°13'0 0.0
2014-Sep-07 12:33N 51°16' E 004°13'0 0.0
2014-Sep-07 11:33N 51°16' E 004°13'0 0.0
2014-Sep-07 10:33N 51°16' E 004°13'0 0.0
2014-Sep-07 09:33N 51°16' E 004°13'0 0.0
2014-Sep-07 08:33N 51°16' E 004°13'0 0.0
2014-Sep-07 07:33N 51°16' E 004°13'0 0.0
2014-Sep-07 06:33N 51°16' E 004°13'0 0.0
2014-Sep-07 05:30N 51°16' E 004°13'0 0.0
2014-Sep-07 04:33N 51°16' E 004°13'0 0.0
2014-Sep-07 03:30N 51°16' E 004°13'0 0.0
2014-Sep-07 02:33N 51°16' E 004°13'0 0.0
2014-Sep-07 01:33N 51°16' E 004°13'0 0.0
2014-Sep-07 00:33N 51°16' E 004°13'0 0.0
2014-Sep-06 23:33N 51°16' E 004°13'0 0.0
2014-Sep-06 22:33N 51°16' E 004°13'  
Track history (hours):
 
Tides and Currents Weather Stations Pressure Air Temp Water Temp Dewpoint Dewpoint Depression Visibility Wind Speed Wind Dir Waves Ship Positions

Grande Portogallo

Last reported at 2014-Sep-16 22:30 UTC. Time now 2014-Sep-16 23:34 UTC.
Position N 39°26' W 000°18'.

Length 176 m; draft 8.2 m.

Type: Cargo ship. MMSI: 247065500.

Date/timePositionNaut miles runAvg speedWind from/ knotsBaromVisibWave heightAir tempDewpointWater temp
2014-Sep-16 22:30N 39°26' W 000°18'0 0.0
2014-Sep-16 21:18N 39°27' W 000°18'0 0.4
2014-Sep-16 20:33N 39°26' W 000°18'6113.6
2014-Sep-16 16:05N 38°35' E 000°22'815.7
2014-Sep-16 15:33N 38°28' E 000°16'1615.7
2014-Sep-16 14:33N 38°15' E 000°05'1515.4
2014-Sep-16 13:33N 38°02' W 000°06'1615.7
2014-Sep-16 12:33N 37°49' W 000°17'1615.7
2014-Sep-16 11:32N 37°36' W 000°28'1515.4
2014-Sep-16 10:34N 37°25' W 000°41'1515.2
2014-Sep-16 09:33N 37°15' W 000°56'1515.5
2014-Sep-16 08:33N 37°04' W 001°10'8520.7
2014-Sep-16 04:25N 36°18' W 002°40'3 2.6
2014-Sep-16 03:20N 36°18' W 002°36'33313.9
2014-Sep-15 03:25N 37°28' W 009°24'1315.2
2014-Sep-15 02:33N 37°41' W 009°19'1515.5
2014-Sep-15 01:33N 37°56' W 009°13'1615.6
2014-Sep-15 00:33N 38°11' W 009°07'1514.9
2014-Sep-14 23:33N 38°25' W 009°01'9 9.1
2014-Sep-14 22:33N 38°31' W 008°52'0 0.0
2014-Sep-14 21:31N 38°31' W 008°52'0 0.0
2014-Sep-14 20:28N 38°31' W 008°52'0 0.0
2014-Sep-14 19:31N 38°31' W 008°52'0 0.0
2014-Sep-14 18:31N 38°31' W 008°52'0 0.0
2014-Sep-14 17:31N 38°31' W 008°52'0 0.0
2014-Sep-14 16:31N 38°31' W 008°52'0 0.0
2014-Sep-14 15:31N 38°31' W 008°52'0 0.0
2014-Sep-14 14:28N 38°31' W 008°52'0 0.0
2014-Sep-14 13:31N 38°31' W 008°52'0 0.0
2014-Sep-14 12:31N 38°31' W 008°52'0 0.0
2014-Sep-14 11:31N 38°31' W 008°52'0 0.0
2014-Sep-14 10:29N 38°31' W 008°52'6 6.8
2014-Sep-14 09:33N 38°27' W 008°58'1312.7
2014-Sep-14 08:33N 38°21' W 009°13'1616.3
2014-Sep-14 07:33N 38°26' W 009°33'39314.3
2014-Sep-13 04:07N 44°58' W 009°03'36214.7
2014-Sep-12 03:33N 50°34' W 005°41'1615.5
2014-Sep-12 02:33N 50°43' W 005°22'8717.3
2014-Sep-11 21:33N 51°21' W 003°18'1313.3
2014-Sep-11 20:33N 51°27' W 002°59'1010.1
2014-Sep-11 19:33N 51°30' W 002°43'0 0.4
2014-Sep-11 18:31N 51°30' W 002°43'0 0.0
2014-Sep-11 17:31N 51°30' W 002°43'0 0.0
2014-Sep-11 16:31N 51°30' W 002°43'0 0.0
2014-Sep-11 15:31N 51°30' W 002°43'0 0.0
2014-Sep-11 14:31N 51°30' W 002°43'0 0.0
2014-Sep-11 13:31N 51°30' W 002°43'0 0.0
2014-Sep-11 12:31N 51°30' W 002°43'0 0.0
2014-Sep-11 11:31N 51°30' W 002°43'0 0.0
2014-Sep-11 10:31N 51°30' W 002°43'0 0.0
2014-Sep-11 09:31N 51°30' W 002°43'0 0.0
2014-Sep-11 08:31N 51°30' W 002°43'0 0.0
2014-Sep-11 07:32N 51°30' W 002°43'0 0.0
2014-Sep-11 06:31N 51°30' W 002°43'0 0.0
2014-Sep-11 05:31N 51°30' W 002°43'0 0.0
2014-Sep-11 04:32N 51°30' W 002°43'0 0.0
2014-Sep-11 03:31N 51°30' W 002°43'0 0.0
2014-Sep-11 02:31N 51°30' W 002°43'0 0.0
2014-Sep-11 01:32N 51°30' W 002°43'0 0.0
2014-Sep-11 00:31N 51°30' W 002°43'0 0.0
2014-Sep-10 23:31N 51°30' W 002°43'0 0.0
2014-Sep-10 22:31N 51°30' W 002°43'0 0.0
2014-Sep-10 21:31N 51°30' W 002°43'0 0.0
2014-Sep-10 20:31N 51°30' W 002°43'0 0.0
2014-Sep-10 19:31N 51°30' W 002°43'0 0.0
2014-Sep-10 18:33N 51°30' W 002°43'1 0.8
2014-Sep-10 17:33N 51°30' W 002°44'6 5.9
2014-Sep-10 16:33N 51°28' W 002°53'1413.9
2014-Sep-10 15:34N 51°21' W 003°12'76 7.3
2014-Sep-10 05:10N 50°50' W 005°02'1016.9
2014-Sep-10 04:33N 50°43' W 005°14'1717.0
2014-Sep-10 03:33N 50°32' W 005°34'1816.2
2014-Sep-10 02:27N 50°18' W 005°52'6913.6
2014-Sep-09 21:26N 50°04' W 004°07'4114.2
2014-Sep-09 18:33N 50°11' W 003°04'1414.0
2014-Sep-09 17:33N 50°15' W 002°43'1515.4
2014-Sep-09 16:33N 50°19' W 002°20'3617.8
2014-Sep-09 14:34N 50°28' W 001°25'2119.1
2014-Sep-09 13:28N 50°29' W 000°53'1617.9
2014-Sep-09 12:33N 50°30' W 000°27'1816.6
2014-Sep-09 11:27N 50°32' E 000°01'1415.3
2014-Sep-09 10:32N 50°35' E 000°23'1414.1
2014-Sep-09 09:33N 50°40' E 000°43'3216.0
2014-Sep-09 07:33N 51°01' E 001°22'1919.4
2014-Sep-09 06:34N 51°13' E 001°46'1615.5
2014-Sep-09 05:34N 51°24' E 002°04'1615.3
2014-Sep-09 04:32N 51°23' E 002°29'1514.9
2014-Sep-09 03:33N 51°23' E 002°53'1515.7
2014-Sep-09 02:33N 51°25' E 003°18'1313.1
2014-Sep-09 01:34N 51°26' E 003°38'1111.0
2014-Sep-09 00:34N 51°22' E 003°55'7 6.8
2014-Sep-08 23:34N 51°22' E 004°05'7 7.4
2014-Sep-08 22:34N 51°19' E 004°16'4 3.6
2014-Sep-08 21:33N 51°16' E 004°17'2 1.7
2014-Sep-08 20:33N 51°16' E 004°14'1 1.0
2014-Sep-08 19:33N 51°16' E 004°13'0 0.0
2014-Sep-08 18:33N 51°16' E 004°13'0 0.0
2014-Sep-08 17:30N 51°16' E 004°13'0 0.0
2014-Sep-08 16:33N 51°16' E 004°13'0 0.0
2014-Sep-08 15:33N 51°16' E 004°13'0 0.0
2014-Sep-08 14:33N 51°16' E 004°13'0 0.0
2014-Sep-08 13:30N 51°16' E 004°13'0 0.0
2014-Sep-08 12:33N 51°16' E 004°13'0 0.0
2014-Sep-08 11:30N 51°16' E 004°13'0 0.0
2014-Sep-08 10:27N 51°16' E 004°13'0 0.0
2014-Sep-08 09:30N 51°16' E 004°13'0 0.0
2014-Sep-08 08:30N 51°16' E 004°13'0 0.0
2014-Sep-08 07:33N 51°16' E 004°13'0 0.0
2014-Sep-08 06:33N 51°16' E 004°13'0 0.0
2014-Sep-08 05:33N 51°16' E 004°13'0 0.0
2014-Sep-08 04:33N 51°16' E 004°13'0 0.0
2014-Sep-08 03:33N 51°16' E 004°13'0 0.0
2014-Sep-08 02:33N 51°16' E 004°13'0 0.0
2014-Sep-08 01:30N 51°16' E 004°13'0 0.0
2014-Sep-08 00:30N 51°16' E 004°13'0 0.0
2014-Sep-07 23:30N 51°16' E 004°13'0 0.0
2014-Sep-07 22:33N 51°16' E 004°13'0 0.0
2014-Sep-07 21:33N 51°16' E 004°13'0 0.0
2014-Sep-07 20:33N 51°16' E 004°13'0 0.0
2014-Sep-07 19:33N 51°16' E 004°13'0 0.0
2014-Sep-07 18:30N 51°16' E 004°13'0 0.0
2014-Sep-07 17:33N 51°16' E 004°13'0 0.0
2014-Sep-07 16:30N 51°16' E 004°13'0 0.0
2014-Sep-07 15:30N 51°16' E 004°13'0 0.0
2014-Sep-07 14:33N 51°16' E 004°13'0 0.0
2014-Sep-07 13:33N 51°16' E 004°13'0 0.0
2014-Sep-07 12:33N 51°16' E 004°13'0 0.0
2014-Sep-07 11:33N 51°16' E 004°13'0 0.0
2014-Sep-07 10:33N 51°16' E 004°13'0 0.0
2014-Sep-07 09:33N 51°16' E 004°13'0 0.0
2014-Sep-07 08:33N 51°16' E 004°13'0 0.0
2014-Sep-07 07:33N 51°16' E 004°13'0 0.0
2014-Sep-07 06:33N 51°16' E 004°13'0 0.0
2014-Sep-07 05:30N 51°16' E 004°13'0 0.0
2014-Sep-07 04:33N 51°16' E 004°13'0 0.0
2014-Sep-07 03:30N 51°16' E 004°13'0 0.0
2014-Sep-07 02:33N 51°16' E 004°13'0 0.0
2014-Sep-07 01:33N 51°16' E 004°13'0 0.0
2014-Sep-07 00:33N 51°16' E 004°13'0 0.0
2014-Sep-06 23:33N 51°16' E 004°13'0 0.0
2014-Sep-06 22:33N 51°16' E 004°13'  

Dump ship's entire track history